sensor_id;sensor_type;location;lat;lon;timestamp;pressure;altitude;pressure_sealevel;temperature;humidity
9139;BME280;4604;48.616;9.548;2023-05-10T00:00:37;96269.31;;;14.79;100.00
9139;BME280;4604;48.616;9.548;2023-05-10T00:03:11;96229.28;;;14.27;100.00
9139;BME280;4604;48.616;9.548;2023-05-10T00:05:50;96259.28;;;14.51;100.00
9139;BME280;4604;48.616;9.548;2023-05-10T00:08:53;96240.97;;;14.18;100.00
9139;BME280;4604;48.616;9.548;2023-05-10T00:11:32;96210.38;;;14.07;100.00
9139;BME280;4604;48.616;9.548;2023-05-10T00:14:11;96248.03;;;14.26;100.00
9139;BME280;4604;48.616;9.548;2023-05-10T00:17:01;96265.00;;;14.40;100.00
9139;BME280;4604;48.616;9.548;2023-05-10T00:19:31;96212.19;;;14.07;100.00
9139;BME280;4604;48.616;9.548;2023-05-10T00:21:59;96254.41;;;14.17;100.00
9139;BME280;4604;48.616;9.548;2023-05-10T00:24:49;96219.94;;;13.94;100.00
9139;BME280;4604;48.616;9.548;2023-05-10T00:27:30;96264.78;;;14.26;100.00
9139;BME280;4604;48.616;9.548;2023-05-10T00:30:21;96218.56;;;13.75;100.00
9139;BME280;4604;48.616;9.548;2023-05-10T00:32:54;96199.91;;;13.68;100.00
9139;BME280;4604;48.616;9.548;2023-05-10T00:35:35;96212.38;;;13.82;100.00
9139;BME280;4604;48.616;9.548;2023-05-10T00:38:06;96265.34;;;14.22;100.00
9139;BME280;4604;48.616;9.548;2023-05-10T00:41:06;96215.31;;;13.87;100.00
9139;BME280;4604;48.616;9.548;2023-05-10T00:43:39;96201.47;;;13.77;100.00
9139;BME280;4604;48.616;9.548;2023-05-10T00:46:15;96207.69;;;13.93;100.00
9139;BME280;4604;48.616;9.548;2023-05-10T00:49:02;96256.44;;;14.15;100.00
9139;BME280;4604;48.616;9.548;2023-05-10T00:51:38;96244.03;;;14.07;100.00
9139;BME280;4604;48.616;9.548;2023-05-10T00:54:23;96254.63;;;14.07;100.00
9139;BME280;4604;48.616;9.548;2023-05-10T00:57:00;96212.69;;;13.64;100.00
9139;BME280;4604;48.616;9.548;2023-05-10T01:00:04;96218.94;;;13.48;100.00
9139;BME280;4604;48.616;9.548;2023-05-10T01:02:48;96262.00;;;13.74;100.00
9139;BME280;4604;48.616;9.548;2023-05-10T01:05:37;96237.06;;;13.60;100.00
9139;BME280;4604;48.616;9.548;2023-05-10T01:08:25;96234.09;;;13.32;100.00
9139;BME280;4604;48.616;9.548;2023-05-10T01:11:04;96292.44;;;13.55;100.00
9139;BME280;4604;48.616;9.548;2023-05-10T01:13:42;96261.94;;;13.27;100.00
9139;BME280;4604;48.616;9.548;2023-05-10T01:16:26;96266.06;;;13.14;100.00
9139;BME280;4604;48.616;9.548;2023-05-10T01:19:05;96264.50;;;12.96;100.00
9139;BME280;4604;48.616;9.548;2023-05-10T01:22:02;96251.16;;;12.73;100.00
9139;BME280;4604;48.616;9.548;2023-05-10T01:25:02;96288.53;;;12.78;100.00
9139;BME280;4604;48.616;9.548;2023-05-10T01:28:11;96317.31;;;12.81;100.00
9139;BME280;4604;48.616;9.548;2023-05-10T01:34:34;96266.22;;;12.48;100.00
9139;BME280;4604;48.616;9.548;2023-05-10T01:40:35;96258.00;;;12.35;100.00
9139;BME280;4604;48.616;9.548;2023-05-10T01:43:21;96286.41;;;12.57;100.00
9139;BME280;4604;48.616;9.548;2023-05-10T01:46:05;96261.63;;;12.26;100.00
9139;BME280;4604;48.616;9.548;2023-05-10T01:48:51;96268.44;;;12.36;100.00
9139;BME280;4604;48.616;9.548;2023-05-10T01:51:35;96316.84;;;12.61;100.00
9139;BME280;4604;48.616;9.548;2023-05-10T01:54:17;96308.25;;;12.59;100.00
9139;BME280;4604;48.616;9.548;2023-05-10T01:56:59;96295.38;;;12.56;100.00
9139;BME280;4604;48.616;9.548;2023-05-10T01:59:39;96290.06;;;12.48;100.00
9139;BME280;4604;48.616;9.548;2023-05-10T02:02:21;96327.28;;;12.71;100.00
9139;BME280;4604;48.616;9.548;2023-05-10T02:05:09;96311.41;;;12.55;100.00
9139;BME280;4604;48.616;9.548;2023-05-10T02:07:52;96315.84;;;12.62;100.00
9139;BME280;4604;48.616;9.548;2023-05-10T02:10:29;96348.28;;;12.81;100.00
9139;BME280;4604;48.616;9.548;2023-05-10T02:13:27;96326.47;;;12.71;100.00
9139;BME280;4604;48.616;9.548;2023-05-10T02:19:04;96339.84;;;12.69;100.00
9139;BME280;4604;48.616;9.548;2023-05-10T02:21:37;96291.53;;;12.51;100.00
9139;BME280;4604;48.616;9.548;2023-05-10T02:24:24;96373.41;;;13.01;100.00
9139;BME280;4604;48.616;9.548;2023-05-10T02:27:06;96374.59;;;12.91;100.00
9139;BME280;4604;48.616;9.548;2023-05-10T02:30:04;96340.69;;;12.61;100.00
9139;BME280;4604;48.616;9.548;2023-05-10T02:32:49;96375.25;;;12.84;100.00
9139;BME280;4604;48.616;9.548;2023-05-10T02:35:27;96353.25;;;12.76;100.00
9139;BME280;4604;48.616;9.548;2023-05-10T02:38:08;96379.72;;;12.84;100.00
9139;BME280;4604;48.616;9.548;2023-05-10T02:40:46;96363.00;;;12.67;100.00
9139;BME280;4604;48.616;9.548;2023-05-10T02:43:32;96382.72;;;12.81;100.00
9139;BME280;4604;48.616;9.548;2023-05-10T02:46:22;96318.84;;;12.59;100.00
9139;BME280;4604;48.616;9.548;2023-05-10T02:52:03;96328.94;;;12.56;100.00
9139;BME280;4604;48.616;9.548;2023-05-10T02:54:43;96329.59;;;12.66;100.00
9139;BME280;4604;48.616;9.548;2023-05-10T02:57:31;96329.25;;;12.69;100.00
9139;BME280;4604;48.616;9.548;2023-05-10T03:00:12;96373.41;;;13.01;100.00
9139;BME280;4604;48.616;9.548;2023-05-10T03:03:07;96336.19;;;12.78;100.00
9139;BME280;4604;48.616;9.548;2023-05-10T03:05:42;96361.88;;;12.78;100.00
9139;BME280;4604;48.616;9.548;2023-05-10T03:08:20;96349.59;;;12.77;100.00
9139;BME280;4604;48.616;9.548;2023-05-10T03:11:16;96339.03;;;12.69;100.00
9139;BME280;4604;48.616;9.548;2023-05-10T03:14:12;96393.28;;;12.97;100.00
9139;BME280;4604;48.616;9.548;2023-05-10T03:17:00;96385.69;;;12.78;100.00
9139;BME280;4604;48.616;9.548;2023-05-10T03:19:49;96346.66;;;12.63;100.00
9139;BME280;4604;48.616;9.548;2023-05-10T03:22:32;96388.81;;;12.98;100.00
9139;BME280;4604;48.616;9.548;2023-05-10T03:25:12;96328.59;;;12.51;100.00
9139;BME280;4604;48.616;9.548;2023-05-10T03:27:48;96341.34;;;12.55;100.00
9139;BME280;4604;48.616;9.548;2023-05-10T03:30:31;96355.41;;;12.64;100.00
9139;BME280;4604;48.616;9.548;2023-05-10T03:33:09;96390.66;;;12.81;100.00
9139;BME280;4604;48.616;9.548;2023-05-10T03:38:39;96326.97;;;12.50;100.00
9139;BME280;4604;48.616;9.548;2023-05-10T03:41:22;96402.41;;;12.78;100.00
9139;BME280;4604;48.616;9.548;2023-05-10T03:44:03;96339.69;;;12.38;100.00
9139;BME280;4604;48.616;9.548;2023-05-10T03:46:41;96335.22;;;12.30;100.00
9139;BME280;4604;48.616;9.548;2023-05-10T03:49:39;96396.44;;;12.68;100.00
9139;BME280;4604;48.616;9.548;2023-05-10T03:52:17;96396.28;;;12.70;100.00
9139;BME280;4604;48.616;9.548;2023-05-10T03:54:47;96398.75;;;12.55;100.00
9139;BME280;4604;48.616;9.548;2023-05-10T03:57:19;96384.03;;;12.44;100.00
9139;BME280;4604;48.616;9.548;2023-05-10T03:59:57;96370.63;;;12.46;100.00
9139;BME280;4604;48.616;9.548;2023-05-10T04:02:32;96335.56;;;12.27;100.00
9139;BME280;4604;48.616;9.548;2023-05-10T04:05:13;96392.97;;;12.59;100.00
9139;BME280;4604;48.616;9.548;2023-05-10T04:07:57;96412.16;;;12.61;100.00
9139;BME280;4604;48.616;9.548;2023-05-10T04:10:43;96367.81;;;12.47;100.00
9139;BME280;4604;48.616;9.548;2023-05-10T04:13:12;96384.84;;;12.53;100.00
9139;BME280;4604;48.616;9.548;2023-05-10T04:15:49;96408.03;;;12.59;100.00
9139;BME280;4604;48.616;9.548;2023-05-10T04:18:30;96407.84;;;12.60;100.00
9139;BME280;4604;48.616;9.548;2023-05-10T04:21:03;96409.31;;;12.63;100.00
9139;BME280;4604;48.616;9.548;2023-05-10T04:23:44;96338.69;;;12.23;100.00
9139;BME280;4604;48.616;9.548;2023-05-10T04:26:16;96336.69;;;12.08;100.00
9139;BME280;4604;48.616;9.548;2023-05-10T04:28:48;96424.72;;;12.59;100.00
9139;BME280;4604;48.616;9.548;2023-05-10T04:31:17;96406.19;;;12.51;100.00
9139;BME280;4604;48.616;9.548;2023-05-10T04:33:54;96371.94;;;12.33;100.00
9139;BME280;4604;48.616;9.548;2023-05-10T04:36:38;96407.31;;;12.40;100.00
9139;BME280;4604;48.616;9.548;2023-05-10T04:39:04;96420.06;;;12.45;100.00
9139;BME280;4604;48.616;9.548;2023-05-10T04:41:31;96419.94;;;12.55;100.00
9139;BME280;4604;48.616;9.548;2023-05-10T04:43:58;96422.91;;;12.52;100.00
9139;BME280;4604;48.616;9.548;2023-05-10T04:46:24;96431.34;;;12.47;100.00
9139;BME280;4604;48.616;9.548;2023-05-10T04:48:53;96428.69;;;12.47;100.00
9139;BME280;4604;48.616;9.548;2023-05-10T04:51:19;96430.19;;;12.58;100.00
9139;BME280;4604;48.616;9.548;2023-05-10T04:53:46;96429.34;;;12.49;100.00
9139;BME280;4604;48.616;9.548;2023-05-10T04:56:13;96432.50;;;12.45;100.00
9139;BME280;4604;48.616;9.548;2023-05-10T04:58:41;96414.63;;;12.47;100.00
9139;BME280;4604;48.616;9.548;2023-05-10T05:01:08;96437.28;;;12.57;100.00
9139;BME280;4604;48.616;9.548;2023-05-10T05:03:36;96429.88;;;12.61;100.00
9139;BME280;4604;48.616;9.548;2023-05-10T05:06:07;96433.66;;;12.67;100.00
9139;BME280;4604;48.616;9.548;2023-05-10T05:08:33;96405.34;;;12.51;100.00
9139;BME280;4604;48.616;9.548;2023-05-10T05:11:00;96434.66;;;12.74;100.00
9139;BME280;4604;48.616;9.548;2023-05-10T05:13:27;96440.47;;;12.85;100.00
9139;BME280;4604;48.616;9.548;2023-05-10T05:15:54;96427.72;;;12.81;100.00
9139;BME280;4604;48.616;9.548;2023-05-10T05:18:22;96434.81;;;12.97;100.00
9139;BME280;4604;48.616;9.548;2023-05-10T05:20:50;96433.34;;;12.94;100.00
9139;BME280;4604;48.616;9.548;2023-05-10T05:23:18;96452.22;;;12.99;100.00
9139;BME280;4604;48.616;9.548;2023-05-10T05:25:46;96443.28;;;12.76;100.00
9139;BME280;4604;48.616;9.548;2023-05-10T05:28:12;96454.19;;;12.89;100.00
9139;BME280;4604;48.616;9.548;2023-05-10T05:30:39;96453.38;;;13.05;100.00
9139;BME280;4604;48.616;9.548;2023-05-10T05:33:06;96450.06;;;13.03;100.00
9139;BME280;4604;48.616;9.548;2023-05-10T05:35:33;96442.63;;;13.15;100.00
9139;BME280;4604;48.616;9.548;2023-05-10T05:37:59;96446.09;;;13.15;100.00
9139;BME280;4604;48.616;9.548;2023-05-10T05:40:27;96460.19;;;13.32;100.00
9139;BME280;4604;48.616;9.548;2023-05-10T05:42:54;96453.38;;;13.38;100.00
9139;BME280;4604;48.616;9.548;2023-05-10T05:45:21;96459.50;;;13.38;100.00
9139;BME280;4604;48.616;9.548;2023-05-10T05:47:48;96462.66;;;13.42;100.00
9139;BME280;4604;48.616;9.548;2023-05-10T05:50:14;96469.09;;;13.47;100.00
9139;BME280;4604;48.616;9.548;2023-05-10T05:52:41;96470.41;;;13.52;100.00
9139;BME280;4604;48.616;9.548;2023-05-10T05:55:08;96471.91;;;13.38;100.00
9139;BME280;4604;48.616;9.548;2023-05-10T05:57:36;96460.19;;;13.32;100.00
9139;BME280;4604;48.616;9.548;2023-05-10T06:00:04;96470.44;;;13.35;100.00
9139;BME280;4604;48.616;9.548;2023-05-10T06:02:31;96475.75;;;13.35;100.00
9139;BME280;4604;48.616;9.548;2023-05-10T06:04:58;96461.97;;;13.23;100.00
9139;BME280;4604;48.616;9.548;2023-05-10T06:07:24;96477.88;;;13.40;100.00
9139;BME280;4604;48.616;9.548;2023-05-10T06:09:51;96500.28;;;13.29;100.00
9139;BME280;4604;48.616;9.548;2023-05-10T06:12:18;96480.84;;;13.20;100.00
9139;BME280;4604;48.616;9.548;2023-05-10T06:14:46;96469.09;;;13.15;100.00
9139;BME280;4604;48.616;9.548;2023-05-10T06:17:12;96462.66;;;13.01;100.00
9139;BME280;4604;48.616;9.548;2023-05-10T06:19:39;96467.63;;;13.12;100.00
9139;BME280;4604;48.616;9.548;2023-05-10T06:22:06;96485.53;;;13.35;100.00
9139;BME280;4604;48.616;9.548;2023-05-10T06:24:33;96488.16;;;13.35;100.00
9139;BME280;4604;48.616;9.548;2023-05-10T06:27:12;96438.16;;;12.91;100.00
9139;BME280;4604;48.616;9.548;2023-05-10T06:29:53;96435.00;;;12.79;100.00
9139;BME280;4604;48.616;9.548;2023-05-10T06:32:39;96495.75;;;13.21;100.00
9139;BME280;4604;48.616;9.548;2023-05-10T06:35:09;96462.13;;;13.14;100.00
9139;BME280;4604;48.616;9.548;2023-05-10T06:37:37;96487.50;;;13.33;100.00
9139;BME280;4604;48.616;9.548;2023-05-10T06:40:07;96497.59;;;13.45;100.00
9139;BME280;4604;48.616;9.548;2023-05-10T06:42:36;96442.44;;;13.16;100.00
9139;BME280;4604;48.616;9.548;2023-05-10T06:45:06;96461.16;;;13.31;100.00
9139;BME280;4604;48.616;9.548;2023-05-10T06:47:33;96509.00;;;13.62;100.00
9139;BME280;4604;48.616;9.548;2023-05-10T06:50:02;96477.38;;;13.44;100.00
9139;BME280;4604;48.616;9.548;2023-05-10T06:52:30;96477.88;;;13.56;100.00
9139;BME280;4604;48.616;9.548;2023-05-10T06:54:57;96491.72;;;13.75;100.00
9139;BME280;4604;48.616;9.548;2023-05-10T06:57:23;96494.53;;;13.81;100.00
9139;BME280;4604;48.616;9.548;2023-05-10T06:59:51;96502.53;;;13.73;100.00
9139;BME280;4604;48.616;9.548;2023-05-10T07:02:19;96461.00;;;13.33;100.00
9139;BME280;4604;48.616;9.548;2023-05-10T07:04:47;96455.50;;;13.26;100.00
9139;BME280;4604;48.616;9.548;2023-05-10T07:07:14;96503.03;;;13.60;100.00
9139;BME280;4604;48.616;9.548;2023-05-10T07:09:41;96505.53;;;13.62;100.00
9139;BME280;4604;48.616;9.548;2023-05-10T07:12:07;96503.53;;;13.56;100.00
9139;BME280;4604;48.616;9.548;2023-05-10T07:14:35;96510.34;;;13.58;100.00
9139;BME280;4604;48.616;9.548;2023-05-10T07:17:02;96512.16;;;13.66;100.00
9139;BME280;4604;48.616;9.548;2023-05-10T07:19:31;96510.47;;;13.65;100.00
9139;BME280;4604;48.616;9.548;2023-05-10T07:21:58;96502.91;;;13.54;100.00
9139;BME280;4604;48.616;9.548;2023-05-10T07:24:25;96468.59;;;13.36;100.00
9139;BME280;4604;48.616;9.548;2023-05-10T07:26:52;96464.94;;;13.53;100.00
9139;BME280;4604;48.616;9.548;2023-05-10T07:29:19;96489.44;;;13.72;100.00
9139;BME280;4604;48.616;9.548;2023-05-10T07:31:46;96527.03;;;13.83;100.00
9139;BME280;4604;48.616;9.548;2023-05-10T07:34:13;96502.69;;;13.72;100.00
9139;BME280;4604;48.616;9.548;2023-05-10T07:36:42;96485.31;;;13.61;100.00
9139;BME280;4604;48.616;9.548;2023-05-10T07:39:09;96515.72;;;13.98;100.00
9139;BME280;4604;48.616;9.548;2023-05-10T07:41:36;96482.13;;;13.65;100.00
9139;BME280;4604;48.616;9.548;2023-05-10T07:44:04;96530.78;;;13.97;100.00
9139;BME280;4604;48.616;9.548;2023-05-10T07:46:31;96543.66;;;14.17;100.00
9139;BME280;4604;48.616;9.548;2023-05-10T07:48:58;96531.25;;;14.17;100.00
9139;BME280;4604;48.616;9.548;2023-05-10T07:51:25;96492.81;;;14.05;100.00
9139;BME280;4604;48.616;9.548;2023-05-10T07:53:54;96523.03;;;14.35;100.00
9139;BME280;4604;48.616;9.548;2023-05-10T07:56:24;96545.09;;;14.44;100.00
9139;BME280;4604;48.616;9.548;2023-05-10T07:58:53;96495.25;;;14.15;99.97
9139;BME280;4604;48.616;9.548;2023-05-10T08:01:21;96490.69;;;14.00;98.48
9139;BME280;4604;48.616;9.548;2023-05-10T08:03:48;96490.59;;;14.17;97.74
9139;BME280;4604;48.616;9.548;2023-05-10T08:06:17;96514.88;;;14.45;97.57
9139;BME280;4604;48.616;9.548;2023-05-10T08:08:45;96517.72;;;14.35;97.46
9139;BME280;4604;48.616;9.548;2023-05-10T08:11:16;96492.31;;;14.41;98.65
9139;BME280;4604;48.616;9.548;2023-05-10T08:13:47;96490.81;;;14.46;97.37
9139;BME280;4604;48.616;9.548;2023-05-10T08:16:18;96554.47;;;14.94;97.10
9139;BME280;4604;48.616;9.548;2023-05-10T08:18:47;96491.44;;;14.17;97.57
9139;BME280;4604;48.616;9.548;2023-05-10T08:21:16;96514.25;;;14.34;95.58
9139;BME280;4604;48.616;9.548;2023-05-10T08:23:43;96508.94;;;13.95;97.76
9139;BME280;4604;48.616;9.548;2023-05-10T08:26:10;96480.94;;;13.84;99.83
9139;BME280;4604;48.616;9.548;2023-05-10T08:28:38;96548.50;;;14.52;98.56
9139;BME280;4604;48.616;9.548;2023-05-10T08:31:06;96539.94;;;14.42;97.96
9139;BME280;4604;48.616;9.548;2023-05-10T08:33:33;96511.44;;;14.28;99.40
9139;BME280;4604;48.616;9.548;2023-05-10T08:36:00;96523.28;;;14.48;95.33
9139;BME280;4604;48.616;9.548;2023-05-10T08:38:29;96517.81;;;14.50;98.67
9139;BME280;4604;48.616;9.548;2023-05-10T08:40:57;96538.38;;;14.87;91.30
9139;BME280;4604;48.616;9.548;2023-05-10T08:43:26;96553.84;;;14.61;90.79
9139;BME280;4604;48.616;9.548;2023-05-10T08:46:00;96534.16;;;14.30;92.76
9139;BME280;4604;48.616;9.548;2023-05-10T08:48:29;96513.75;;;14.31;95.52
9139;BME280;4604;48.616;9.548;2023-05-10T08:50:58;96519.13;;;14.62;95.52
9139;BME280;4604;48.616;9.548;2023-05-10T08:53:26;96501.19;;;14.64;89.76
9139;BME280;4604;48.616;9.548;2023-05-10T08:55:55;96541.53;;;14.91;88.07
9139;BME280;4604;48.616;9.548;2023-05-10T08:58:22;96494.00;;;14.73;88.45
9139;BME280;4604;48.616;9.548;2023-05-10T09:00:49;96563.84;;;14.82;91.84
9139;BME280;4604;48.616;9.548;2023-05-10T09:03:19;96494.28;;;14.47;90.98
9139;BME280;4604;48.616;9.548;2023-05-10T09:05:46;96538.59;;;14.86;91.98
9139;BME280;4604;48.616;9.548;2023-05-10T09:08:13;96549.81;;;14.96;91.79
9139;BME280;4604;48.616;9.548;2023-05-10T09:10:45;96513.94;;;14.92;89.27
9139;BME280;4604;48.616;9.548;2023-05-10T09:13:14;96508.53;;;15.08;89.68
9139;BME280;4604;48.616;9.548;2023-05-10T09:15:51;96529.31;;;15.28;84.54
9139;BME280;4604;48.616;9.548;2023-05-10T09:18:21;96553.25;;;15.28;86.90
9139;BME280;4604;48.616;9.548;2023-05-10T09:20:51;96534.00;;;15.03;88.61
9139;BME280;4604;48.616;9.548;2023-05-10T09:23:18;96557.59;;;15.20;88.84
9139;BME280;4604;48.616;9.548;2023-05-10T09:25:45;96563.50;;;15.08;87.35
9139;BME280;4604;48.616;9.548;2023-05-10T09:28:12;96562.22;;;15.04;88.22
9139;BME280;4604;48.616;9.548;2023-05-10T09:30:39;96546.19;;;14.89;91.76
9139;BME280;4604;48.616;9.548;2023-05-10T09:33:08;96536.38;;;14.66;90.26
9139;BME280;4604;48.616;9.548;2023-05-10T09:35:36;96556.75;;;14.97;88.00
9139;BME280;4604;48.616;9.548;2023-05-10T09:38:05;96586.16;;;15.27;89.55
9139;BME280;4604;48.616;9.548;2023-05-10T09:40:32;96581.69;;;15.19;89.00
9139;BME280;4604;48.616;9.548;2023-05-10T09:43:00;96592.47;;;15.26;87.45
9139;BME280;4604;48.616;9.548;2023-05-10T09:45:33;96526.69;;;14.73;89.63
9139;BME280;4604;48.616;9.548;2023-05-10T09:48:01;96556.59;;;14.98;92.77
9139;BME280;4604;48.616;9.548;2023-05-10T09:50:29;96523.66;;;15.08;87.50
9139;BME280;4604;48.616;9.548;2023-05-10T09:53:03;96577.56;;;15.16;90.25
9139;BME280;4604;48.616;9.548;2023-05-10T09:55:47;96548.34;;;15.39;90.67
9139;BME280;4604;48.616;9.548;2023-05-10T09:58:25;96562.09;;;15.43;86.52
9139;BME280;4604;48.616;9.548;2023-05-10T10:01:09;96521.41;;;15.57;86.48
9139;BME280;4604;48.616;9.548;2023-05-10T10:03:54;96579.28;;;15.55;86.46
9139;BME280;4604;48.616;9.548;2023-05-10T10:06:41;96556.31;;;15.39;89.08
9139;BME280;4604;48.616;9.548;2023-05-10T10:09:24;96577.31;;;15.72;89.35
9139;BME280;4604;48.616;9.548;2023-05-10T10:11:51;96557.25;;;15.47;85.63
9139;BME280;4604;48.616;9.548;2023-05-10T10:14:18;96545.84;;;15.38;87.17
9139;BME280;4604;48.616;9.548;2023-05-10T10:16:46;96554.34;;;15.56;86.84
9139;BME280;4604;48.616;9.548;2023-05-10T10:19:13;96574.88;;;15.71;85.53
9139;BME280;4604;48.616;9.548;2023-05-10T10:21:40;96573.69;;;15.88;86.59
9139;BME280;4604;48.616;9.548;2023-05-10T10:24:07;96537.84;;;15.61;83.47
9139;BME280;4604;48.616;9.548;2023-05-10T10:26:36;96552.94;;;15.60;83.07
9139;BME280;4604;48.616;9.548;2023-05-10T10:29:13;96541.78;;;15.65;80.49
9139;BME280;4604;48.616;9.548;2023-05-10T10:31:47;96547.59;;;15.69;82.42
9139;BME280;4604;48.616;9.548;2023-05-10T10:34:27;96570.50;;;15.93;83.13
9139;BME280;4604;48.616;9.548;2023-05-10T10:36:55;96558.56;;;15.89;80.37
9139;BME280;4604;48.616;9.548;2023-05-10T10:39:23;96539.81;;;15.44;81.99
9139;BME280;4604;48.616;9.548;2023-05-10T10:41:54;96579.09;;;15.80;81.59
9139;BME280;4604;48.616;9.548;2023-05-10T10:44:25;96532.69;;;15.22;82.79
9139;BME280;4604;48.616;9.548;2023-05-10T10:47:00;96532.56;;;15.15;84.46
9139;BME280;4604;48.616;9.548;2023-05-10T10:49:30;96515.72;;;14.99;85.74
9139;BME280;4604;48.616;9.548;2023-05-10T10:52:21;96573.03;;;15.25;84.10
9139;BME280;4604;48.616;9.548;2023-05-10T10:54:51;96565.75;;;15.19;84.11
9139;BME280;4604;48.616;9.548;2023-05-10T10:57:20;96552.59;;;15.26;84.80
9139;BME280;4604;48.616;9.548;2023-05-10T10:59:48;96548.38;;;15.31;84.19
9139;BME280;4604;48.616;9.548;2023-05-10T11:02:36;96541.78;;;15.27;84.59
9139;BME280;4604;48.616;9.548;2023-05-10T11:05:35;96573.69;;;15.65;83.25
9139;BME280;4604;48.616;9.548;2023-05-10T11:08:14;96539.84;;;15.59;84.45
9139;BME280;4604;48.616;9.548;2023-05-10T11:10:50;96564.00;;;16.10;86.66
9139;BME280;4604;48.616;9.548;2023-05-10T11:13:27;96549.66;;;16.26;87.23
9139;BME280;4604;48.616;9.548;2023-05-10T11:15:55;96547.44;;;16.59;81.91
9139;BME280;4604;48.616;9.548;2023-05-10T11:18:25;96546.88;;;16.64;79.89
9139;BME280;4604;48.616;9.548;2023-05-10T11:20:57;96542.19;;;16.66;79.52
9139;BME280;4604;48.616;9.548;2023-05-10T11:23:30;96556.16;;;17.04;78.02
9139;BME280;4604;48.616;9.548;2023-05-10T11:25:58;96554.91;;;16.49;72.63
9139;BME280;4604;48.616;9.548;2023-05-10T11:28:27;96540.75;;;16.04;73.56
9139;BME280;4604;48.616;9.548;2023-05-10T11:30:55;96536.78;;;15.70;79.38
9139;BME280;4604;48.616;9.548;2023-05-10T11:33:23;96546.34;;;15.79;80.74
9139;BME280;4604;48.616;9.548;2023-05-10T11:35:50;96563.63;;;15.98;77.40
9139;BME280;4604;48.616;9.548;2023-05-10T11:38:17;96572.13;;;15.79;74.62
9139;BME280;4604;48.616;9.548;2023-05-10T11:40:44;96591.41;;;15.96;75.91
9139;BME280;4604;48.616;9.548;2023-05-10T11:43:11;96573.84;;;15.72;77.65
9139;BME280;4604;48.616;9.548;2023-05-10T11:45:41;96570.97;;;15.58;82.71
9139;BME280;4604;48.616;9.548;2023-05-10T11:48:08;96580.69;;;15.66;84.90
9139;BME280;4604;48.616;9.548;2023-05-10T11:50:34;96595.31;;;15.47;84.90
9139;BME280;4604;48.616;9.548;2023-05-10T11:53:01;96562.78;;;15.14;87.02
9139;BME280;4604;48.616;9.548;2023-05-10T11:55:28;96626.78;;;15.35;91.63
9139;BME280;4604;48.616;9.548;2023-05-10T11:58:01;96625.66;;;14.67;93.75
9139;BME280;4604;48.616;9.548;2023-05-10T12:00:29;96628.13;;;13.97;95.24
9139;BME280;4604;48.616;9.548;2023-05-10T12:03:00;96592.47;;;13.17;99.10
9139;BME280;4604;48.616;9.548;2023-05-10T12:05:32;96605.06;;;13.07;98.69
9139;BME280;4604;48.616;9.548;2023-05-10T12:08:13;96642.50;;;13.20;100.00
9139;BME280;4604;48.616;9.548;2023-05-10T12:10:42;96650.75;;;13.09;100.00
9139;BME280;4604;48.616;9.548;2023-05-10T12:13:12;96642.09;;;12.99;100.00
9139;BME280;4604;48.616;9.548;2023-05-10T12:15:41;96615.13;;;12.53;100.00
9139;BME280;4604;48.616;9.548;2023-05-10T12:18:10;96668.66;;;12.73;100.00
9139;BME280;4604;48.616;9.548;2023-05-10T12:20:37;96678.75;;;12.69;100.00
9139;BME280;4604;48.616;9.548;2023-05-10T12:23:05;96690.81;;;12.37;100.00
9139;BME280;4604;48.616;9.548;2023-05-10T12:25:33;96666.66;;;12.32;100.00
9139;BME280;4604;48.616;9.548;2023-05-10T12:28:03;96700.28;;;12.40;100.00
9139;BME280;4604;48.616;9.548;2023-05-10T12:30:33;96635.94;;;12.13;100.00
9139;BME280;4604;48.616;9.548;2023-05-10T12:33:01;96682.84;;;12.29;100.00
9139;BME280;4604;48.616;9.548;2023-05-10T12:35:31;96630.97;;;12.10;100.00
9139;BME280;4604;48.616;9.548;2023-05-10T12:38:01;96692.38;;;12.48;100.00
9139;BME280;4604;48.616;9.548;2023-05-10T12:40:52;96627.94;;;12.31;100.00
9139;BME280;4604;48.616;9.548;2023-05-10T12:43:23;96650.63;;;12.68;100.00
9139;BME280;4604;48.616;9.548;2023-05-10T12:46:04;96695.09;;;12.99;100.00
9139;BME280;4604;48.616;9.548;2023-05-10T12:48:31;96625.13;;;12.67;100.00
9139;BME280;4604;48.616;9.548;2023-05-10T12:51:06;96630.84;;;12.97;100.00
9139;BME280;4604;48.616;9.548;2023-05-10T12:53:35;96631.06;;;13.20;100.00
9139;BME280;4604;48.616;9.548;2023-05-10T12:56:02;96664.28;;;13.65;100.00
9139;BME280;4604;48.616;9.548;2023-05-10T12:58:29;96646.38;;;13.91;100.00
9139;BME280;4604;48.616;9.548;2023-05-10T13:01:04;96616.84;;;13.95;95.37
9139;BME280;4604;48.616;9.548;2023-05-10T13:03:43;96612.22;;;14.05;95.75
9139;BME280;4604;48.616;9.548;2023-05-10T13:06:46;96617.47;;;14.29;96.02
9139;BME280;4604;48.616;9.548;2023-05-10T13:09:30;96609.63;;;14.36;95.80
9139;BME280;4604;48.616;9.548;2023-05-10T13:12:14;96616.91;;;14.59;97.08
9139;BME280;4604;48.616;9.548;2023-05-10T13:14:51;96658.53;;;15.06;96.65
9139;BME280;4604;48.616;9.548;2023-05-10T13:17:27;96647.47;;;15.25;97.49
9139;BME280;4604;48.616;9.548;2023-05-10T13:23:05;96650.03;;;15.65;93.48
9139;BME280;4604;48.616;9.548;2023-05-10T13:25:34;96598.91;;;15.31;94.79
9139;BME280;4604;48.616;9.548;2023-05-10T13:28:05;96627.72;;;15.74;94.27
9139;BME280;4604;48.616;9.548;2023-05-10T13:30:32;96612.31;;;15.84;93.05
9139;BME280;4604;48.616;9.548;2023-05-10T13:33:07;96598.13;;;16.07;91.26
9139;BME280;4604;48.616;9.548;2023-05-10T13:35:34;96651.34;;;16.59;90.76
9139;BME280;4604;48.616;9.548;2023-05-10T13:38:06;96573.47;;;16.27;87.68
9139;BME280;4604;48.616;9.548;2023-05-10T13:40:34;96628.81;;;16.77;85.30
9139;BME280;4604;48.616;9.548;2023-05-10T13:43:02;96622.03;;;16.89;84.39
9139;BME280;4604;48.616;9.548;2023-05-10T13:45:30;96573.41;;;16.72;82.49
9139;BME280;4604;48.616;9.548;2023-05-10T13:47:57;96622.56;;;16.99;79.46
9139;BME280;4604;48.616;9.548;2023-05-10T13:50:25;96636.72;;;17.15;80.66
9139;BME280;4604;48.616;9.548;2023-05-10T13:52:52;96601.88;;;17.01;81.06
9139;BME280;4604;48.616;9.548;2023-05-10T13:55:23;96591.22;;;17.01;73.06
9139;BME280;4604;48.616;9.548;2023-05-10T13:57:51;96604.19;;;16.75;70.88
9139;BME280;4604;48.616;9.548;2023-05-10T14:00:19;96603.00;;;16.77;73.19
9139;BME280;4604;48.616;9.548;2023-05-10T14:02:51;96566.72;;;16.76;74.75
9139;BME280;4604;48.616;9.548;2023-05-10T14:05:18;96616.78;;;16.96;71.47
9139;BME280;4604;48.616;9.548;2023-05-10T14:07:46;96595.94;;;16.55;72.73